Time;durP1;ratioP1;P1;durP2;ratioP2;P2;SDS_P1;SDS_P2;PMS_P1;PMS_P2;Temp;Humidity;BMP_temperature;BMP_pressure;BME280_temperature;BME280_humidity;BME280_pressure;Samples;Min_cycle;Max_cycle;Signal;HPM_P1;HPM_P2
2023/04/09 00:00:49;;;;;;;;;;;;;;;7.19;100.00;96686.44;5089072;28;19930;-76
2023/04/09 00:03:15;;;;;;;;;;;;;;;7.18;100.00;96682.09;5092917;28;19931;-76
2023/04/09 00:05:42;;;;;;;;;;;;;;;7.18;100.00;96687.47;5078949;28;19935;-76
2023/04/09 00:08:09;;;;;;;;;;;;;;;7.20;100.00;96685.41;5097531;28;19977;-76
2023/04/09 00:10:36;;;;;;;;;;;;;;;7.18;100.00;96676.72;5077799;28;19924;-77
2023/04/09 00:13:02;;;;;;;;;;;;;;;7.12;100.00;96689.09;5080423;28;19978;-76
2023/04/09 00:15:30;;;;;;;;;;;;;;;7.16;100.00;96689.50;5084201;28;19929;-76
2023/04/09 00:17:57;;;;;;;;;;;;;;;7.14;100.00;96681.69;5087991;28;19924;-76
2023/04/09 00:20:24;;;;;;;;;;;;;;;7.16;100.00;96690.34;5094707;28;19977;-76
2023/04/09 00:22:51;;;;;;;;;;;;;;;7.18;100.00;96676.72;5084816;28;19947;-76
2023/04/09 00:25:18;;;;;;;;;;;;;;;7.16;100.00;96673.41;5080990;28;19925;-76
2023/04/09 00:27:45;;;;;;;;;;;;;;;7.16;100.00;96676.06;5082794;28;19924;-76
2023/04/09 00:30:12;;;;;;;;;;;;;;;7.09;100.00;96677.91;5081573;28;19925;-77
2023/04/09 00:32:40;;;;;;;;;;;;;;;7.05;100.00;96676.69;5081727;28;19939;-76
2023/04/09 00:35:07;;;;;;;;;;;;;;;7.04;100.00;96678.53;5090368;28;19931;-76
2023/04/09 00:37:34;;;;;;;;;;;;;;;7.05;100.00;96677.50;5082899;28;19935;-76
2023/04/09 00:40:00;;;;;;;;;;;;;;;7.07;100.00;96680.78;5084245;28;19924;-76
2023/04/09 00:42:28;;;;;;;;;;;;;;;7.06;100.00;96672.97;5078830;28;19932;-76
2023/04/09 00:44:55;;;;;;;;;;;;;;;7.07;100.00;96679.97;5082861;28;19950;-76
2023/04/09 00:47:22;;;;;;;;;;;;;;;7.02;100.00;96683.25;5083896;28;19928;-76
2023/04/09 00:49:50;;;;;;;;;;;;;;;6.94;100.00;96679.91;5091970;28;19924;-76
2023/04/09 00:52:17;;;;;;;;;;;;;;;6.85;100.00;96679.25;5089791;28;19925;-76
2023/04/09 00:54:43;;;;;;;;;;;;;;;6.86;100.00;96682.78;5083790;28;19925;-76
2023/04/09 00:57:11;;;;;;;;;;;;;;;6.79;100.00;96688.13;5086134;28;19928;-76
2023/04/09 00:59:38;;;;;;;;;;;;;;;6.76;100.00;96677.75;5079640;28;19930;-76
2023/04/09 01:02:05;;;;;;;;;;;;;;;6.75;100.00;96682.31;5096705;28;19932;-76
2023/04/09 01:04:32;;;;;;;;;;;;;;;6.71;100.00;96678.38;5087301;28;19924;-76
2023/04/09 01:07:05;;;;;;;;;;;;;;;6.72;100.00;96685.38;5084361;28;19942;-76
2023/04/09 01:09:35;;;;;;;;;;;;;;;6.68;100.00;96684.13;5088546;28;20014;-76
2023/04/09 01:12:09;;;;;;;;;;;;;;;6.62;100.00;96684.91;5086152;28;19928;-76
2023/04/09 01:14:38;;;;;;;;;;;;;;;6.59;100.00;96679.09;5079810;28;19927;-76
2023/04/09 01:17:12;;;;;;;;;;;;;;;6.48;100.00;96672.44;5082146;28;19947;-76
2023/04/09 01:19:44;;;;;;;;;;;;;;;6.45;100.00;96675.53;5088458;28;19924;-76
2023/04/09 01:22:17;;;;;;;;;;;;;;;6.44;100.00;96684.59;5080621;28;19934;-82
2023/04/09 01:24:48;;;;;;;;;;;;;;;6.44;100.00;96673.88;5087517;28;19924;-84
2023/04/09 01:27:23;;;;;;;;;;;;;;;6.49;100.00;96679.44;5087708;28;20024;-84
2023/04/09 01:30:04;;;;;;;;;;;;;;;6.54;100.00;96682.41;5077647;28;19969;-82
2023/04/09 01:32:32;;;;;;;;;;;;;;;6.58;100.00;96686.31;5085061;28;19974;-83
2023/04/09 01:34:59;;;;;;;;;;;;;;;6.65;100.00;96679.13;5086568;28;19935;-82
2023/04/09 01:37:27;;;;;;;;;;;;;;;6.64;100.00;96685.53;5084887;28;20248;-83
2023/04/09 01:39:53;;;;;;;;;;;;;;;6.65;100.00;96681.00;5077156;28;19931;-84
2023/04/09 01:42:20;;;;;;;;;;;;;;;6.61;100.00;96669.84;5082964;28;20019;-84
2023/04/09 01:44:47;;;;;;;;;;;;;;;6.62;100.00;96668.81;5086746;28;19933;-83
2023/04/09 01:47:15;;;;;;;;;;;;;;;6.65;100.00;96671.09;5092396;28;19924;-83
2023/04/09 01:49:43;;;;;;;;;;;;;;;6.67;100.00;96682.47;5086300;28;19927;-84
2023/04/09 01:52:10;;;;;;;;;;;;;;;6.69;100.00;96676.91;5086490;28;19925;-84
2023/04/09 01:54:36;;;;;;;;;;;;;;;6.71;100.00;96673.00;5090884;28;20027;-84
2023/04/09 01:57:03;;;;;;;;;;;;;;;6.73;100.00;96668.25;5090533;28;19925;-84
2023/04/09 01:59:30;;;;;;;;;;;;;;;6.76;100.00;96670.53;5088727;28;19936;-84
2023/04/09 02:02:00;;;;;;;;;;;;;;;6.79;100.00;96670.16;5097302;28;19991;-83
2023/04/09 02:04:31;;;;;;;;;;;;;;;6.81;100.00;96678.81;5087605;28;20031;-83
2023/04/09 02:07:00;;;;;;;;;;;;;;;6.83;100.00;96679.44;5094452;28;20046;-84
2023/04/09 02:09:29;;;;;;;;;;;;;;;6.81;100.00;96676.13;5084725;28;19932;-82
2023/04/09 02:11:57;;;;;;;;;;;;;;;6.76;100.00;96678.59;5100664;28;19955;-83
2023/04/09 02:14:26;;;;;;;;;;;;;;;6.70;100.00;96678.56;5092042;28;19928;-83
2023/04/09 02:16:53;;;;;;;;;;;;;;;6.68;100.00;96675.25;5079501;28;20015;-82
2023/04/09 02:19:19;;;;;;;;;;;;;;;6.65;100.00;96673.78;5076518;28;19924;-84
2023/04/09 02:21:48;;;;;;;;;;;;;;;6.64;100.00;96669.44;5090471;28;19924;-83
2023/04/09 02:24:14;;;;;;;;;;;;;;;6.65;100.00;96667.56;5083070;28;19928;-83
2023/04/09 02:26:41;;;;;;;;;;;;;;;6.64;100.00;96664.06;5087687;28;19928;-84
2023/04/09 02:29:08;;;;;;;;;;;;;;;6.57;100.00;96665.88;5081595;28;19924;-82
2023/04/09 02:31:35;;;;;;;;;;;;;;;6.53;100.00;96669.16;5077996;28;19928;-83
2023/04/09 02:34:01;;;;;;;;;;;;;;;6.48;100.00;96659.00;5086180;28;19932;-84
2023/04/09 02:36:28;;;;;;;;;;;;;;;6.43;100.00;96659.63;5081032;28;19924;-84
2023/04/09 02:38:56;;;;;;;;;;;;;;;6.46;100.00;96661.88;5093312;28;19924;-84
2023/04/09 02:41:23;;;;;;;;;;;;;;;6.42;100.00;96659.81;5099775;28;19971;-83
2023/04/09 02:43:50;;;;;;;;;;;;;;;6.45;100.00;96654.91;5085410;28;19924;-84
2023/04/09 02:46:17;;;;;;;;;;;;;;;6.51;100.00;96663.16;5084173;28;19924;-84
2023/04/09 02:48:43;;;;;;;;;;;;;;;6.47;100.00;96657.34;5086194;28;19950;-84
2023/04/09 02:51:10;;;;;;;;;;;;;;;6.45;100.00;96660.25;5076337;28;19924;-83
2023/04/09 02:53:39;;;;;;;;;;;;;;;6.49;100.00;96663.34;5089258;28;19928;-84
2023/04/09 02:56:07;;;;;;;;;;;;;;;6.51;100.00;96672.03;5078187;28;19978;-84
2023/04/09 02:58:34;;;;;;;;;;;;;;;6.55;100.00;96664.44;5083086;28;19996;-82
2023/04/09 03:01:01;;;;;;;;;;;;;;;6.58;100.00;96658.66;5081578;28;20053;-84
2023/04/09 03:03:27;;;;;;;;;;;;;;;6.60;100.00;96662.81;5084795;28;19924;-83
2023/04/09 03:05:54;;;;;;;;;;;;;;;6.59;100.00;96666.53;5083234;28;19939;-82
2023/04/09 03:08:21;;;;;;;;;;;;;;;6.52;100.00;96662.97;5091837;28;19959;-83
2023/04/09 03:10:48;;;;;;;;;;;;;;;6.51;100.00;96661.31;5082758;28;19931;-83
2023/04/09 03:13:16;;;;;;;;;;;;;;;6.43;100.00;96662.31;5083494;28;19936;-83
2023/04/09 03:15:43;;;;;;;;;;;;;;;6.45;100.00;96659.44;5085240;28;19924;-83
2023/04/09 03:18:09;;;;;;;;;;;;;;;6.44;100.00;96655.91;5091628;28;19936;-83
2023/04/09 03:20:37;;;;;;;;;;;;;;;6.45;100.00;96649.53;5076083;28;19955;-82
2023/04/09 03:23:04;;;;;;;;;;;;;;;6.49;100.00;96647.25;5087012;28;19925;-83
2023/04/09 03:25:39;;;;;;;;;;;;;;;6.46;100.00;96650.38;5075965;28;19924;-82
2023/04/09 03:28:17;;;;;;;;;;;;;;;6.42;100.00;96649.09;5089291;28;19931;-83
2023/04/09 03:30:47;;;;;;;;;;;;;;;6.35;100.00;96637.50;5081211;28;20200;-83
2023/04/09 03:33:15;;;;;;;;;;;;;;;6.32;100.00;96635.19;5094971;28;19993;-82
2023/04/09 03:35:50;;;;;;;;;;;;;;;6.26;100.00;96633.31;5087833;28;20010;-84
2023/04/09 03:38:22;;;;;;;;;;;;;;;6.20;100.00;96634.09;5084139;28;19931;-83
2023/04/09 03:40:49;;;;;;;;;;;;;;;6.15;100.00;96636.50;5073999;28;19924;-84
2023/04/09 03:43:17;;;;;;;;;;;;;;;6.08;100.00;96631.94;5080060;28;19925;-83
2023/04/09 03:45:49;;;;;;;;;;;;;;;6.09;100.00;96627.41;5083647;28;19928;-84
2023/04/09 03:48:22;;;;;;;;;;;;;;;6.14;100.00;96634.84;5075522;28;19931;-83
2023/04/09 03:50:49;;;;;;;;;;;;;;;6.14;100.00;96630.31;5081800;28;19927;-83
2023/04/09 03:53:23;;;;;;;;;;;;;;;6.20;100.00;96629.56;5088293;28;19963;-83
2023/04/09 03:55:50;;;;;;;;;;;;;;;6.28;100.00;96632.09;5080047;28;19931;-84
2023/04/09 03:58:24;;;;;;;;;;;;;;;6.34;100.00;96630.47;5082486;28;20019;-84
2023/04/09 04:00:51;;;;;;;;;;;;;;;6.39;100.00;96631.53;5090933;28;20007;-83
2023/04/09 04:03:32;;;;;;;;;;;;;;;6.44;100.00;96645.19;5084270;28;19928;-83
2023/04/09 04:06:09;;;;;;;;;;;;;;;6.50;100.00;96648.09;5071150;28;19944;-82
2023/04/09 04:08:56;;;;;;;;;;;;;;;6.49;100.00;96649.94;5101367;28;19931;-84
2023/04/09 04:11:32;;;;;;;;;;;;;;;6.48;100.00;96656.34;5083803;28;19939;-83
2023/04/09 04:14:00;;;;;;;;;;;;;;;6.40;100.00;96665.38;5078348;28;19932;-83
2023/04/09 04:16:27;;;;;;;;;;;;;;;6.31;100.00;96657.66;5082025;28;19925;-84
2023/04/09 04:18:55;;;;;;;;;;;;;;;6.27;100.00;96667.97;5086517;28;19932;-84
2023/04/09 04:21:22;;;;;;;;;;;;;;;6.23;100.00;96671.22;5079786;28;20032;-83
2023/04/09 04:23:56;;;;;;;;;;;;;;;6.19;100.00;96665.44;5086661;28;19970;-84
2023/04/09 04:26:27;;;;;;;;;;;;;;;6.16;100.00;96665.00;5081354;28;19930;-83
2023/04/09 04:28:53;;;;;;;;;;;;;;;6.15;100.00;96663.31;5081588;28;19931;-83
2023/04/09 04:31:48;;;;;;;;;;;;;;;6.07;100.00;96665.13;5076536;28;19925;-83
2023/04/09 04:34:18;;;;;;;;;;;;;;;6.07;100.00;96673.19;5083306;28;19931;-84
2023/04/09 04:36:49;;;;;;;;;;;;;;;6.01;100.00;96665.91;5089747;28;19924;-84
2023/04/09 04:39:17;;;;;;;;;;;;;;;6.05;100.00;96669.84;5081227;28;19932;-83
2023/04/09 04:41:52;;;;;;;;;;;;;;;6.13;100.00;96668.03;5085890;28;20031;-82
2023/04/09 04:44:23;;;;;;;;;;;;;;;6.19;100.00;96670.81;5087421;28;19932;-82
2023/04/09 04:46:57;;;;;;;;;;;;;;;6.24;100.00;96672.88;5088186;28;19924;-84
2023/04/09 04:49:23;;;;;;;;;;;;;;;6.24;100.00;96673.72;5090321;28;19982;-82
2023/04/09 04:51:51;;;;;;;;;;;;;;;6.24;100.00;96678.25;5080066;28;19931;-84
2023/04/09 04:54:18;;;;;;;;;;;;;;;6.20;100.00;96671.63;5107265;27;19930;-82
2023/04/09 04:56:55;;;;;;;;;;;;;;;6.20;100.00;96677.81;5085752;28;19928;-84
2023/04/09 04:59:51;;;;;;;;;;;;;;;6.20;100.00;96677.00;5090853;28;19978;-82
2023/04/09 05:02:20;;;;;;;;;;;;;;;6.18;100.00;96671.81;5091584;28;19966;-83
2023/04/09 05:05:01;;;;;;;;;;;;;;;6.14;100.00;96677.75;5079277;28;20023;-84
2023/04/09 05:07:35;;;;;;;;;;;;;;;6.10;100.00;96679.19;5088321;28;20031;-82
2023/04/09 05:10:02;;;;;;;;;;;;;;;6.13;100.00;96679.59;5086836;28;19947;-83
2023/04/09 05:12:35;;;;;;;;;;;;;;;6.16;100.00;96689.13;5084046;28;19934;-83
2023/04/09 05:15:02;;;;;;;;;;;;;;;6.18;100.00;96681.72;5084019;28;19932;-84
2023/04/09 05:17:31;;;;;;;;;;;;;;;6.22;100.00;96691.84;5081392;28;19932;-83
2023/04/09 05:19:58;;;;;;;;;;;;;;;6.26;100.00;96686.94;5085169;28;19963;-82
2023/04/09 05:22:38;;;;;;;;;;;;;;;6.29;100.00;96684.72;5083308;28;19934;-83
2023/04/09 05:25:06;;;;;;;;;;;;;;;6.31;100.00;96681.81;5081557;28;19932;-83
2023/04/09 05:27:37;;;;;;;;;;;;;;;6.30;100.00;96680.97;5088863;28;20014;-83
2023/04/09 05:30:05;;;;;;;;;;;;;;;6.26;100.00;96681.56;5076184;28;19924;-83
2023/04/09 05:32:34;;;;;;;;;;;;;;;6.24;100.00;96678.25;5087191;28;19924;-82
2023/04/09 05:35:02;;;;;;;;;;;;;;;6.25;100.00;96674.53;5090282;28;20083;-83
2023/04/09 05:37:31;;;;;;;;;;;;;;;6.24;100.00;96686.28;5082761;28;19959;-84
2023/04/09 05:39:58;;;;;;;;;;;;;;;6.27;100.00;96680.56;5081273;28;21143;-82
2023/04/09 05:42:25;;;;;;;;;;;;;;;6.29;100.00;96689.25;5084344;28;19986;-83
2023/04/09 05:45:05;;;;;;;;;;;;;;;6.27;100.00;96681.38;5084510;28;19986;-83
2023/04/09 05:47:32;;;;;;;;;;;;;;;6.25;100.00;96680.75;5099817;28;19927;-83
2023/04/09 05:50:10;;;;;;;;;;;;;;;6.23;100.00;96674.72;5084182;28;19924;-82
2023/04/09 05:52:37;;;;;;;;;;;;;;;6.22;100.00;96674.94;5094275;28;19955;-83
2023/04/09 05:55:05;;;;;;;;;;;;;;;6.23;100.00;96676.59;5085171;28;19932;-83
2023/04/09 05:57:44;;;;;;;;;;;;;;;6.20;100.00;96672.47;5089047;28;19932;-82
2023/04/09 06:00:12;;;;;;;;;;;;;;;6.15;100.00;96680.25;5082515;28;19938;-84
2023/04/09 06:02:44;;;;;;;;;;;;;;;6.12;100.00;96677.16;5085094;28;19931;-83
2023/04/09 06:05:12;;;;;;;;;;;;;;;6.10;100.00;96681.84;5083632;28;19969;-84
2023/04/09 06:07:39;;;;;;;;;;;;;;;6.07;100.00;96683.91;5081031;28;19931;-82
2023/04/09 06:10:07;;;;;;;;;;;;;;;6.05;100.00;96685.94;5081132;28;20019;-84
2023/04/09 06:12:34;;;;;;;;;;;;;;;5.95;100.00;96685.47;5092567;28;19981;-84
2023/04/09 06:15:02;;;;;;;;;;;;;;;5.85;100.00;96694.81;5080402;28;19970;-81
2023/04/09 06:17:29;;;;;;;;;;;;;;;5.82;100.00;96696.03;5084293;28;19932;-83
2023/04/09 06:19:56;;;;;;;;;;;;;;;5.82;100.00;96704.06;5082426;28;19950;-84
2023/04/09 06:22:24;;;;;;;;;;;;;;;5.82;100.00;96709.41;5085300;28;19925;-84
2023/04/09 06:24:50;;;;;;;;;;;;;;;5.78;100.00;96705.47;5103991;27;19959;-83
2023/04/09 06:27:17;;;;;;;;;;;;;;;5.65;100.00;96705.34;5086684;28;19924;-84
2023/04/09 06:29:44;;;;;;;;;;;;;;;5.59;100.00;96711.47;5080516;28;19933;-83
2023/04/09 06:32:11;;;;;;;;;;;;;;;5.56;100.00;96703.78;5074888;28;19925;-84
2023/04/09 06:34:37;;;;;;;;;;;;;;;5.58;100.00;96709.78;5086310;28;19923;-86
2023/04/09 06:37:04;;;;;;;;;;;;;;;5.63;100.00;96704.69;5085764;28;19932;-82
2023/04/09 06:39:32;;;;;;;;;;;;;;;5.68;100.00;96703.09;5080948;28;19939;-84
2023/04/09 06:41:59;;;;;;;;;;;;;;;5.72;100.00;96712.41;5090288;28;19956;-84
2023/04/09 06:44:52;;;;;;;;;;;;;;;5.68;100.00;96708.47;5080007;28;19931;-84
2023/04/09 06:47:19;;;;;;;;;;;;;;;5.62;100.00;96698.50;5079838;28;19924;-84
2023/04/09 06:49:45;;;;;;;;;;;;;;;5.62;100.00;96703.84;5088985;28;19947;-84
2023/04/09 06:52:12;;;;;;;;;;;;;;;5.63;100.00;96697.47;5085295;28;20010;-83
2023/04/09 06:54:41;;;;;;;;;;;;;;;5.67;100.00;96697.94;5080466;28;19928;-82
2023/04/09 06:57:08;;;;;;;;;;;;;;;5.69;100.00;96702.09;5083462;28;19928;-82
2023/04/09 06:59:35;;;;;;;;;;;;;;;5.72;100.00;96704.38;5091162;28;19932;-84
2023/04/09 07:02:01;;;;;;;;;;;;;;;5.70;100.00;96702.91;5082616;28;20019;-84
2023/04/09 07:04:28;;;;;;;;;;;;;;;5.72;100.00;96711.56;5076608;28;19928;-82
2023/04/09 07:06:58;;;;;;;;;;;;;;;5.66;100.00;96696.28;5073785;28;20023;-85
2023/04/09 07:09:24;;;;;;;;;;;;;;;5.60;100.00;96700.56;5070716;28;19959;-83
2023/04/09 07:11:52;;;;;;;;;;;;;;;5.56;100.00;96704.63;5086413;28;19967;-83
2023/04/09 07:14:19;;;;;;;;;;;;;;;5.55;100.00;96691.41;5077751;28;19924;-83
2023/04/09 07:16:46;;;;;;;;;;;;;;;5.58;100.00;96691.88;5082435;28;20003;-81
2023/04/09 07:19:12;;;;;;;;;;;;;;;5.62;100.00;96686.94;5089247;28;19935;-83
2023/04/09 07:21:39;;;;;;;;;;;;;;;5.57;100.00;96681.34;5085735;28;19924;-83
2023/04/09 07:24:06;;;;;;;;;;;;;;;5.54;100.00;96682.56;5087017;28;19966;-83
2023/04/09 07:26:33;;;;;;;;;;;;;;;5.60;100.00;96679.13;5090812;28;19928;-82
2023/04/09 07:29:02;;;;;;;;;;;;;;;5.60;100.00;96670.25;5091794;28;20259;-83
2023/04/09 07:31:29;;;;;;;;;;;;;;;5.63;100.00;96676.03;5085159;28;19930;-84
2023/04/09 07:33:56;;;;;;;;;;;;;;;5.66;100.00;96675.69;5087317;28;19931;-83
2023/04/09 07:36:23;;;;;;;;;;;;;;;5.71;100.00;96673.25;5084205;28;19932;-82
2023/04/09 07:38:49;;;;;;;;;;;;;;;5.79;100.00;96671.44;5085269;28;19932;-83
2023/04/09 07:41:16;;;;;;;;;;;;;;;5.79;100.00;96674.13;5086107;28;19974;-84
2023/04/09 07:43:43;;;;;;;;;;;;;;;5.83;100.00;96668.19;5087221;28;19924;-82
2023/04/09 07:46:11;;;;;;;;;;;;;;;5.89;100.00;96667.47;5085643;28;20045;-84
2023/04/09 07:48:37;;;;;;;;;;;;;;;5.93;100.00;96666.06;5084944;28;19924;-84
2023/04/09 07:51:05;;;;;;;;;;;;;;;5.92;100.00;96664.41;5090184;28;20135;-83
2023/04/09 07:53:31;;;;;;;;;;;;;;;5.86;100.00;96661.63;5079423;28;19931;-83
2023/04/09 07:55:58;;;;;;;;;;;;;;;5.88;100.00;96660.44;5080559;28;19924;-84
2023/04/09 07:58:25;;;;;;;;;;;;;;;5.93;100.00;96658.03;5079014;28;19932;-83
2023/04/09 08:00:52;;;;;;;;;;;;;;;6.17;100.00;96661.28;5087244;28;19924;-82
2023/04/09 08:03:21;;;;;;;;;;;;;;;6.56;100.00;96656.19;5085364;28;19924;-84
2023/04/09 08:05:48;;;;;;;;;;;;;;;7.00;100.00;96654.94;5085970;28;19928;-83
2023/04/09 08:08:14;;;;;;;;;;;;;;;7.34;100.00;96664.78;5083969;28;19928;-84
2023/04/09 08:10:41;;;;;;;;;;;;;;;7.69;100.00;96662.78;5087147;28;19967;-83
2023/04/09 08:13:08;;;;;;;;;;;;;;;8.17;100.00;96660.75;5082247;28;19932;-82
2023/04/09 08:15:35;;;;;;;;;;;;;;;8.66;100.00;96663.84;5080561;28;19940;-83
2023/04/09 08:18:02;;;;;;;;;;;;;;;9.13;100.00;96669.06;5089674;28;19967;-84
2023/04/09 08:20:31;;;;;;;;;;;;;;;9.45;100.00;96660.00;5082141;28;19978;-84
2023/04/09 08:22:58;;;;;;;;;;;;;;;9.78;100.00;96665.22;5086958;28;19924;-85
2023/04/09 08:25:26;;;;;;;;;;;;;;;10.16;100.00;96663.28;5086763;28;19951;-85
2023/04/09 08:27:53;;;;;;;;;;;;;;;10.45;100.00;96659.13;5101098;28;19932;-84
2023/04/09 08:30:19;;;;;;;;;;;;;;;10.56;100.00;96663.78;5090506;28;20018;-85
2023/04/09 08:32:46;;;;;;;;;;;;;;;10.66;100.00;96652.47;5089732;28;19923;-85
2023/04/09 08:35:13;;;;;;;;;;;;;;;10.77;100.00;96653.59;5088877;28;19979;-86
2023/04/09 08:37:41;;;;;;;;;;;;;;;10.82;100.00;96656.44;5092736;28;21192;-86
2023/04/09 08:40:08;;;;;;;;;;;;;;;10.80;100.00;96656.66;5086030;28;20074;-84
2023/04/09 08:42:36;;;;;;;;;;;;;;;10.87;100.00;96652.06;5088094;28;19928;-87
2023/04/09 08:45:03;;;;;;;;;;;;;;;10.73;100.00;96655.91;5078813;28;19975;-87
2023/04/09 08:47:31;;;;;;;;;;;;;;;11.00;100.00;96656.47;5091030;28;19924;-86
2023/04/09 08:49:58;;;;;;;;;;;;;;;10.81;100.00;96655.63;5093714;28;19932;-83
2023/04/09 08:52:30;;;;;;;;;;;;;;;11.01;100.00;96650.00;5095241;28;19954;-84
2023/04/09 08:54:58;;;;;;;;;;;;;;;11.15;100.00;96658.78;5088629;28;19950;-85
2023/04/09 08:57:25;;;;;;;;;;;;;;;11.19;100.00;96663.53;5078289;28;19928;-85
2023/04/09 08:59:51;;;;;;;;;;;;;;;10.84;100.00;96654.34;5101684;28;20019;-86
2023/04/09 09:02:18;;;;;;;;;;;;;;;11.06;100.00;96665.56;5088416;28;19931;-85
2023/04/09 09:04:46;;;;;;;;;;;;;;;11.27;100.00;96663.22;5088838;28;19928;-86
2023/04/09 09:07:13;;;;;;;;;;;;;;;11.37;100.00;96660.81;5079623;28;19987;-85
2023/04/09 09:09:54;;;;;;;;;;;;;;;11.43;100.00;96666.34;5088005;28;20019;-84
2023/04/09 09:12:36;;;;;;;;;;;;;;;11.42;100.00;96661.97;5090193;28;19931;-86
2023/04/09 09:15:03;;;;;;;;;;;;;;;11.26;99.93;96658.84;5083856;28;19939;-85
2023/04/09 09:17:30;;;;;;;;;;;;;;;11.37;100.00;96659.97;5086827;28;19931;-83
2023/04/09 09:19:57;;;;;;;;;;;;;;;11.49;100.00;96668.13;5094119;28;19932;-86
2023/04/09 09:22:24;;;;;;;;;;;;;;;11.53;98.75;96663.94;5085875;28;19931;-85
2023/04/09 09:24:52;;;;;;;;;;;;;;;11.63;98.34;96664.22;5096342;28;19994;-85
2023/04/09 09:27:31;;;;;;;;;;;;;;;11.49;94.34;96665.41;5101888;28;19923;-87
2023/04/09 09:30:01;;;;;;;;;;;;;;;11.43;97.28;96660.94;5099447;28;20031;-79
2023/04/09 09:32:28;;;;;;;;;;;;;;;11.60;94.99;96661.94;5091857;28;19973;-79
2023/04/09 09:34:58;;;;;;;;;;;;;;;11.66;94.60;96652.91;5081711;28;19925;-79
2023/04/09 09:37:28;;;;;;;;;;;;;;;11.72;90.80;96657.44;5086029;28;19932;-78
2023/04/09 09:39:55;;;;;;;;;;;;;;;11.52;91.08;96656.88;5089079;28;19935;-78
2023/04/09 09:42:22;;;;;;;;;;;;;;;11.63;91.67;96656.09;5087646;28;19928;-79
2023/04/09 09:44:50;;;;;;;;;;;;;;;11.79;92.20;96658.19;5085421;28;19935;-79
2023/04/09 09:47:19;;;;;;;;;;;;;;;12.02;91.00;96655.53;5087776;28;20026;-80
2023/04/09 09:49:48;;;;;;;;;;;;;;;12.20;87.18;96642.97;5084869;28;19928;-78
2023/04/09 09:52:15;;;;;;;;;;;;;;;12.19;87.14;96646.75;5076310;28;19924;-79
2023/04/09 09:54:43;;;;;;;;;;;;;;;12.30;89.07;96646.78;5088270;28;19977;-79
2023/04/09 09:57:12;;;;;;;;;;;;;;;12.45;86.69;96651.72;5081121;28;19924;-79
2023/04/09 09:59:41;;;;;;;;;;;;;;;12.42;85.72;96653.00;5081418;28;19924;-79
2023/04/09 10:02:12;;;;;;;;;;;;;;;12.35;88.59;96655.00;5094289;28;19930;-79
2023/04/09 10:04:40;;;;;;;;;;;;;;;12.25;85.50;96654.75;5103062;28;19924;-80
2023/04/09 10:07:07;;;;;;;;;;;;;;;12.29;85.03;96652.41;5093003;28;19985;-80
2023/04/09 10:09:35;;;;;;;;;;;;;;;12.50;85.71;96659.97;5082534;28;19943;-80
2023/04/09 10:12:04;;;;;;;;;;;;;;;12.67;84.66;96654.69;5087971;28;19925;-79
2023/04/09 10:14:31;;;;;;;;;;;;;;;12.77;83.49;96661.13;5088015;28;19971;-80
2023/04/09 10:16:58;;;;;;;;;;;;;;;12.85;84.01;96652.66;5085652;28;19924;-79
2023/04/09 10:19:25;;;;;;;;;;;;;;;13.05;82.45;96655.00;5075175;28;19973;-79
2023/04/09 10:21:57;;;;;;;;;;;;;;;13.26;82.51;96648.16;5107524;27;19958;-79
2023/04/09 10:24:24;;;;;;;;;;;;;;;13.28;79.47;96648.72;5074068;28;19928;-80
2023/04/09 10:26:54;;;;;;;;;;;;;;;13.13;81.53;96642.94;5088291;28;19991;-79
2023/04/09 10:29:28;;;;;;;;;;;;;;;13.25;80.81;96646.50;5089643;28;19950;-80
2023/04/09 10:32:03;;;;;;;;;;;;;;;13.31;81.44;96647.41;5094078;28;20004;-80
2023/04/09 10:34:30;;;;;;;;;;;;;;;13.22;80.26;96646.97;5082772;28;20106;-80
2023/04/09 10:36:58;;;;;;;;;;;;;;;13.33;80.19;96640.72;5080131;28;19942;-80
2023/04/09 10:39:26;;;;;;;;;;;;;;;13.33;77.89;96637.16;5098244;28;20006;-79
2023/04/09 10:41:54;;;;;;;;;;;;;;;13.42;80.32;96636.56;5090178;28;19923;-79
2023/04/09 10:44:21;;;;;;;;;;;;;;;13.68;82.02;96647.91;5103851;27;20060;-80
2023/04/09 10:46:48;;;;;;;;;;;;;;;13.68;77.06;96639.75;5093196;28;19929;-80
2023/04/09 10:49:16;;;;;;;;;;;;;;;13.75;77.20;96632.28;5091213;28;19977;-80
2023/04/09 10:51:48;;;;;;;;;;;;;;;13.64;78.40;96628.56;5093653;28;20008;-80
2023/04/09 10:54:29;;;;;;;;;;;;;;;13.64;76.60;96620.41;5075965;28;19924;-80
2023/04/09 10:57:26;;;;;;;;;;;;;;;13.78;78.00;96618.25;5083630;28;19954;-81
2023/04/09 10:59:55;;;;;;;;;;;;;;;13.60;79.27;96620.09;5008687;28;19932;-80
2023/04/09 11:02:39;;;;;;;;;;;;;;;13.87;78.98;96611.31;5064927;28;19924;-80
2023/04/09 11:05:12;;;;;;;;;;;;;;;14.29;78.89;96609.88;5087381;28;19951;-80
2023/04/09 11:07:40;;;;;;;;;;;;;;;14.22;74.48;96608.38;5084809;28;19928;-80
2023/04/09 11:10:07;;;;;;;;;;;;;;;14.23;74.08;96604.59;5086674;28;19932;-80
2023/04/09 11:12:34;;;;;;;;;;;;;;;14.43;76.13;96610.41;5092406;28;19956;-80
2023/04/09 11:15:02;;;;;;;;;;;;;;;14.56;74.74;96603.78;5083494;28;19969;-80
2023/04/09 11:17:29;;;;;;;;;;;;;;;14.46;74.99;96600.94;5079269;28;19936;-80
2023/04/09 11:19:56;;;;;;;;;;;;;;;14.40;75.75;96597.31;5083383;28;19924;-80
2023/04/09 11:22:23;;;;;;;;;;;;;;;14.38;76.95;96592.13;5081587;28;19963;-81
2023/04/09 11:24:50;;;;;;;;;;;;;;;14.34;75.70;96599.09;5083341;28;19928;-81
2023/04/09 11:27:18;;;;;;;;;;;;;;;14.31;76.24;96588.72;5082580;28;19928;-80
2023/04/09 11:29:45;;;;;;;;;;;;;;;14.23;78.36;96594.56;5082485;28;19932;-80
2023/04/09 11:32:13;;;;;;;;;;;;;;;14.51;77.57;96590.97;5105806;27;19928;-81
2023/04/09 11:34:40;;;;;;;;;;;;;;;14.56;78.38;96588.31;5088224;28;19928;-80
2023/04/09 11:37:08;;;;;;;;;;;;;;;14.67;77.10;96597.44;5075475;28;19973;-81
2023/04/09 11:39:36;;;;;;;;;;;;;;;14.69;75.46;96587.16;5077220;28;20028;-81
2023/04/09 11:42:03;;;;;;;;;;;;;;;14.74;75.51;96585.31;5075299;28;19929;-81
2023/04/09 11:44:30;;;;;;;;;;;;;;;14.64;74.62;96584.34;5091360;28;19924;-81
2023/04/09 11:46:57;;;;;;;;;;;;;;;14.89;75.88;96579.25;5091454;28;19973;-80
2023/04/09 11:49:25;;;;;;;;;;;;;;;14.67;73.97;96576.53;5084053;28;19935;-80
2023/04/09 11:51:52;;;;;;;;;;;;;;;14.65;73.95;96580.56;5086222;28;19959;-80
2023/04/09 11:54:19;;;;;;;;;;;;;;;14.46;74.32;96587.38;5080615;28;20357;-81
2023/04/09 11:56:45;;;;;;;;;;;;;;;14.34;74.34;96574.66;5078095;28;19978;-80
2023/04/09 11:59:14;;;;;;;;;;;;;;;14.38;75.66;96580.41;5079571;28;19928;-80
2023/04/09 12:01:41;;;;;;;;;;;;;;;14.39;75.93;96576.66;5069150;28;19932;-81
2023/04/09 12:04:08;;;;;;;;;;;;;;;14.47;74.41;96572.69;5073991;28;19929;-81
2023/04/09 12:06:40;;;;;;;;;;;;;;;14.56;74.61;96573.91;5089481;28;20342;-82
2023/04/09 12:09:12;;;;;;;;;;;;;;;14.66;73.90;96566.72;5087955;28;19932;-81
2023/04/09 12:11:40;;;;;;;;;;;;;;;14.73;74.62;96572.78;5077093;28;19930;-81
2023/04/09 12:14:08;;;;;;;;;;;;;;;14.89;76.81;96571.09;5098857;28;19928;-81
2023/04/09 12:16:35;;;;;;;;;;;;;;;15.00;77.06;96567.44;5101005;28;19924;-81
2023/04/09 12:19:02;;;;;;;;;;;;;;;14.82;76.22;96559.59;5095588;28;19928;-81
2023/04/09 12:21:44;;;;;;;;;;;;;;;14.71;75.07;96563.28;5077225;28;19951;-81
2023/04/09 12:24:12;;;;;;;;;;;;;;;14.79;75.09;96567.44;5078665;28;19931;-81
2023/04/09 12:26:38;;;;;;;;;;;;;;;14.71;76.09;96558.66;5075186;28;19925;-81
2023/04/09 12:29:06;;;;;;;;;;;;;;;14.88;76.60;96568.66;5084386;28;19932;-81
2023/04/09 12:31:32;;;;;;;;;;;;;;;15.21;77.03;96559.53;5088294;28;19992;-81
2023/04/09 12:33:59;;;;;;;;;;;;;;;15.27;72.97;96563.97;5091216;28;19925;-82
2023/04/09 12:36:26;;;;;;;;;;;;;;;15.11;71.63;96558.34;5086623;28;19924;-81
2023/04/09 12:38:52;;;;;;;;;;;;;;;15.22;72.43;96563.91;5089877;28;19924;-81
2023/04/09 12:41:20;;;;;;;;;;;;;;;15.25;70.73;96553.31;5088856;28;19935;-82
2023/04/09 12:43:48;;;;;;;;;;;;;;;15.27;70.25;96550.34;5090584;28;19931;-82
2023/04/09 12:46:15;;;;;;;;;;;;;;;15.46;72.51;96551.66;5071810;28;19924;-81
2023/04/09 12:48:41;;;;;;;;;;;;;;;15.46;69.54;96543.50;5081404;28;19967;-81
2023/04/09 12:51:10;;;;;;;;;;;;;;;15.48;71.73;96542.16;5089585;28;19924;-81
2023/04/09 12:53:36;;;;;;;;;;;;;;;15.50;70.34;96539.19;5080125;28;19928;-82